sensor_id;sensor_type;location;lat;lon;timestamp;pressure;altitude;pressure_sealevel;temperature;humidity
39083;BME280;24834;44.444;26.098;2022-11-03T00:04:07;101072.94;;;18.69;
39083;BME280;24834;44.444;26.098;2022-11-03T00:10:09;101088.41;;;18.75;
39083;BME280;24834;44.444;26.098;2022-11-03T00:16:11;101082.97;;;18.72;
39083;BME280;24834;44.444;26.098;2022-11-03T00:22:14;101095.56;;;18.54;
39083;BME280;24834;44.444;26.098;2022-11-03T00:28:17;101094.59;;;18.50;
39083;BME280;24834;44.444;26.098;2022-11-03T00:34:19;101095.72;;;18.41;
39083;BME280;24834;44.444;26.098;2022-11-03T00:40:21;101111.81;;;18.61;
39083;BME280;24834;44.444;26.098;2022-11-03T00:46:25;101116.66;;;18.51;
39083;BME280;24834;44.444;26.098;2022-11-03T00:52:28;101109.63;;;18.46;
39083;BME280;24834;44.444;26.098;2022-11-03T00:58:31;101117.94;;;18.62;
39083;BME280;24834;44.444;26.098;2022-11-03T01:04:33;101115.56;;;18.60;
39083;BME280;24834;44.444;26.098;2022-11-03T01:10:53;101110.72;;;18.62;
39083;BME280;24834;44.444;26.098;2022-11-03T01:17:18;101125.28;;;18.56;
39083;BME280;24834;44.444;26.098;2022-11-03T01:23:20;101129.41;;;18.28;
39083;BME280;24834;44.444;26.098;2022-11-03T01:29:23;101116.72;;;18.34;
39083;BME280;24834;44.444;26.098;2022-11-03T01:35:25;101126.78;;;18.37;
39083;BME280;24834;44.444;26.098;2022-11-03T01:41:27;101120.00;;;18.39;
39083;BME280;24834;44.444;26.098;2022-11-03T01:47:31;101122.03;;;18.42;
39083;BME280;24834;44.444;26.098;2022-11-03T01:53:36;101123.94;;;18.25;
39083;BME280;24834;44.444;26.098;2022-11-03T01:59:43;101124.72;;;18.25;
39083;BME280;24834;44.444;26.098;2022-11-03T02:05:49;101129.09;;;18.30;
39083;BME280;24834;44.444;26.098;2022-11-03T02:11:54;101139.91;;;18.16;
39083;BME280;24834;44.444;26.098;2022-11-03T02:18:10;101133.50;;;18.17;
39083;BME280;24834;44.444;26.098;2022-11-03T02:24:14;101147.28;;;18.19;
39083;BME280;24834;44.444;26.098;2022-11-03T02:30:19;101152.44;;;18.15;
39083;BME280;24834;44.444;26.098;2022-11-03T02:36:30;101145.41;;;18.11;
39083;BME280;24834;44.444;26.098;2022-11-03T02:42:36;101161.94;;;17.91;
39083;BME280;24834;44.444;26.098;2022-11-03T02:48:40;101174.19;;;17.92;
39083;BME280;24834;44.444;26.098;2022-11-03T02:54:44;101172.16;;;17.89;
39083;BME280;24834;44.444;26.098;2022-11-03T03:07:05;101173.72;;;17.98;
39083;BME280;24834;44.444;26.098;2022-11-03T03:13:12;101168.06;;;17.83;
39083;BME280;24834;44.444;26.098;2022-11-03T03:19:29;101179.13;;;17.68;
39083;BME280;24834;44.444;26.098;2022-11-03T03:25:43;101190.41;;;17.65;
39083;BME280;24834;44.444;26.098;2022-11-03T03:31:52;101191.88;;;17.48;
39083;BME280;24834;44.444;26.098;2022-11-03T03:38:04;101193.09;;;17.42;
39083;BME280;24834;44.444;26.098;2022-11-03T03:44:11;101191.09;;;17.39;
39083;BME280;24834;44.444;26.098;2022-11-03T03:50:13;101202.28;;;17.28;
39083;BME280;24834;44.444;26.098;2022-11-03T03:56:19;101215.25;;;17.29;
39083;BME280;24834;44.444;26.098;2022-11-03T04:02:22;101220.47;;;17.34;
39083;BME280;24834;44.444;26.098;2022-11-03T04:08:25;101208.69;;;17.27;
39083;BME280;24834;44.444;26.098;2022-11-03T04:14:27;101225.28;;;17.32;
39083;BME280;24834;44.444;26.098;2022-11-03T04:20:50;101219.56;;;17.47;
39083;BME280;24834;44.444;26.098;2022-11-03T04:27:34;101231.78;;;17.48;
39083;BME280;24834;44.444;26.098;2022-11-03T04:33:37;101211.81;;;17.60;
39083;BME280;24834;44.444;26.098;2022-11-03T04:39:41;101203.66;;;17.56;
39083;BME280;24834;44.444;26.098;2022-11-03T04:45:45;101221.50;;;17.55;
39083;BME280;24834;44.444;26.098;2022-11-03T04:51:48;101227.38;;;17.44;
39083;BME280;24834;44.444;26.098;2022-11-03T04:58:00;101224.56;;;17.40;
39083;BME280;24834;44.444;26.098;2022-11-03T05:04:11;101236.06;;;17.27;
39083;BME280;24834;44.444;26.098;2022-11-03T05:10:19;101244.50;;;17.29;
39083;BME280;24834;44.444;26.098;2022-11-03T05:16:22;101253.97;;;17.44;
